sensor_id;sensor_type;location;lat;lon;timestamp;P1;durP1;ratioP1;P2;durP2;ratioP2
17796;SDS011;55596;53.554;9.916;2024-03-07T00:02:10;42.60;;;24.93;;
17796;SDS011;55596;53.554;9.916;2024-03-07T00:04:37;38.47;;;24.00;;
17796;SDS011;55596;53.554;9.916;2024-03-07T00:07:05;38.30;;;24.10;;
17796;SDS011;55596;53.554;9.916;2024-03-07T00:09:33;34.97;;;22.83;;
17796;SDS011;55596;53.554;9.916;2024-03-07T00:12:01;38.50;;;22.10;;
17796;SDS011;55596;53.554;9.916;2024-03-07T00:14:28;30.37;;;20.03;;
17796;SDS011;55596;53.554;9.916;2024-03-07T00:16:55;31.47;;;20.50;;
17796;SDS011;55596;53.554;9.916;2024-03-07T00:19:24;34.33;;;20.70;;
17796;SDS011;55596;53.554;9.916;2024-03-07T00:21:51;35.37;;;20.47;;
17796;SDS011;55596;53.554;9.916;2024-03-07T00:24:20;28.20;;;19.70;;
17796;SDS011;55596;53.554;9.916;2024-03-07T00:26:47;30.53;;;19.50;;
17796;SDS011;55596;53.554;9.916;2024-03-07T00:29:16;31.43;;;18.67;;
17796;SDS011;55596;53.554;9.916;2024-03-07T00:31:44;30.57;;;18.70;;
17796;SDS011;55596;53.554;9.916;2024-03-07T00:34:11;27.40;;;17.80;;
17796;SDS011;55596;53.554;9.916;2024-03-07T00:36:39;36.33;;;18.67;;
17796;SDS011;55596;53.554;9.916;2024-03-07T00:39:06;36.97;;;17.97;;
17796;SDS011;55596;53.554;9.916;2024-03-07T00:41:38;23.80;;;15.47;;
17796;SDS011;55596;53.554;9.916;2024-03-07T00:44:05;27.90;;;16.47;;
17796;SDS011;55596;53.554;9.916;2024-03-07T00:46:33;27.43;;;17.10;;
17796;SDS011;55596;53.554;9.916;2024-03-07T00:49:01;26.20;;;16.23;;
17796;SDS011;55596;53.554;9.916;2024-03-07T00:51:28;24.77;;;16.43;;
17796;SDS011;55596;53.554;9.916;2024-03-07T00:53:55;31.63;;;17.00;;
17796;SDS011;55596;53.554;9.916;2024-03-07T00:56:23;27.67;;;16.20;;
17796;SDS011;55596;53.554;9.916;2024-03-07T00:58:51;24.30;;;16.20;;
17796;SDS011;55596;53.554;9.916;2024-03-07T01:01:19;26.60;;;15.77;;
17796;SDS011;55596;53.554;9.916;2024-03-07T01:03:46;27.70;;;15.67;;
17796;SDS011;55596;53.554;9.916;2024-03-07T01:06:13;26.10;;;15.40;;
17796;SDS011;55596;53.554;9.916;2024-03-07T01:08:40;24.73;;;15.70;;
17796;SDS011;55596;53.554;9.916;2024-03-07T01:11:07;26.43;;;15.87;;
17796;SDS011;55596;53.554;9.916;2024-03-07T01:13:37;27.17;;;15.27;;
17796;SDS011;55596;53.554;9.916;2024-03-07T01:16:06;23.73;;;15.60;;
17796;SDS011;55596;53.554;9.916;2024-03-07T01:18:33;26.83;;;16.17;;
17796;SDS011;55596;53.554;9.916;2024-03-07T01:21:00;25.13;;;15.37;;
17796;SDS011;55596;53.554;9.916;2024-03-07T01:23:27;28.17;;;16.13;;
17796;SDS011;55596;53.554;9.916;2024-03-07T01:25:55;26.70;;;14.70;;
17796;SDS011;55596;53.554;9.916;2024-03-07T01:28:22;33.87;;;17.03;;
17796;SDS011;55596;53.554;9.916;2024-03-07T01:30:49;30.57;;;16.60;;
17796;SDS011;55596;53.554;9.916;2024-03-07T01:33:17;25.30;;;15.10;;
17796;SDS011;55596;53.554;9.916;2024-03-07T01:35:45;27.27;;;17.13;;
17796;SDS011;55596;53.554;9.916;2024-03-07T01:38:12;27.83;;;16.30;;
17796;SDS011;55596;53.554;9.916;2024-03-07T01:40:39;23.57;;;14.73;;
17796;SDS011;55596;53.554;9.916;2024-03-07T01:43:07;30.17;;;16.70;;
17796;SDS011;55596;53.554;9.916;2024-03-07T01:45:34;30.70;;;15.97;;
17796;SDS011;55596;53.554;9.916;2024-03-07T01:48:02;31.07;;;17.53;;
17796;SDS011;55596;53.554;9.916;2024-03-07T01:50:31;28.73;;;17.20;;
17796;SDS011;55596;53.554;9.916;2024-03-07T01:52:58;27.03;;;16.23;;
17796;SDS011;55596;53.554;9.916;2024-03-07T01:55:26;28.67;;;17.47;;
17796;SDS011;55596;53.554;9.916;2024-03-07T01:57:54;31.77;;;19.27;;
17796;SDS011;55596;53.554;9.916;2024-03-07T02:00:23;29.03;;;18.43;;
17796;SDS011;55596;53.554;9.916;2024-03-07T02:02:50;27.13;;;18.13;;
17796;SDS011;55596;53.554;9.916;2024-03-07T02:05:18;30.77;;;19.93;;
17796;SDS011;55596;53.554;9.916;2024-03-07T02:07:46;30.13;;;19.30;;
17796;SDS011;55596;53.554;9.916;2024-03-07T02:10:14;33.07;;;18.93;;
17796;SDS011;55596;53.554;9.916;2024-03-07T02:12:42;31.93;;;19.13;;
17796;SDS011;55596;53.554;9.916;2024-03-07T02:15:09;29.20;;;18.87;;
17796;SDS011;55596;53.554;9.916;2024-03-07T02:17:36;31.27;;;18.67;;
17796;SDS011;55596;53.554;9.916;2024-03-07T02:20:04;32.03;;;18.37;;
17796;SDS011;55596;53.554;9.916;2024-03-07T02:22:34;31.53;;;19.10;;
17796;SDS011;55596;53.554;9.916;2024-03-07T02:25:01;33.17;;;18.40;;
17796;SDS011;55596;53.554;9.916;2024-03-07T02:27:28;34.60;;;19.13;;
17796;SDS011;55596;53.554;9.916;2024-03-07T02:29:55;31.07;;;18.93;;
17796;SDS011;55596;53.554;9.916;2024-03-07T02:32:22;31.33;;;18.40;;
17796;SDS011;55596;53.554;9.916;2024-03-07T02:34:51;27.57;;;17.67;;
17796;SDS011;55596;53.554;9.916;2024-03-07T02:37:18;25.70;;;17.37;;
17796;SDS011;55596;53.554;9.916;2024-03-07T02:39:47;27.63;;;18.53;;
17796;SDS011;55596;53.554;9.916;2024-03-07T02:42:14;26.00;;;16.90;;
17796;SDS011;55596;53.554;9.916;2024-03-07T02:44:41;26.03;;;17.07;;
17796;SDS011;55596;53.554;9.916;2024-03-07T02:47:08;27.57;;;16.63;;
17796;SDS011;55596;53.554;9.916;2024-03-07T02:49:35;21.43;;;15.27;;
17796;SDS011;55596;53.554;9.916;2024-03-07T02:52:02;29.87;;;15.77;;
17796;SDS011;55596;53.554;9.916;2024-03-07T02:54:32;32.27;;;17.13;;
17796;SDS011;55596;53.554;9.916;2024-03-07T02:57:00;27.27;;;15.53;;
17796;SDS011;55596;53.554;9.916;2024-03-07T02:59:27;27.03;;;16.23;;
17796;SDS011;55596;53.554;9.916;2024-03-07T03:01:54;24.47;;;15.00;;
17796;SDS011;55596;53.554;9.916;2024-03-07T03:04:21;23.67;;;15.13;;
17796;SDS011;55596;53.554;9.916;2024-03-07T03:06:49;25.13;;;15.00;;
17796;SDS011;55596;53.554;9.916;2024-03-07T03:09:16;26.60;;;15.27;;
17796;SDS011;55596;53.554;9.916;2024-03-07T03:11:45;21.23;;;14.43;;
17796;SDS011;55596;53.554;9.916;2024-03-07T03:14:13;25.37;;;14.43;;
17796;SDS011;55596;53.554;9.916;2024-03-07T03:16:41;24.13;;;14.30;;
17796;SDS011;55596;53.554;9.916;2024-03-07T03:19:08;23.97;;;14.50;;
17796;SDS011;55596;53.554;9.916;2024-03-07T03:21:35;23.60;;;14.30;;
17796;SDS011;55596;53.554;9.916;2024-03-07T03:24:03;22.00;;;13.40;;
17796;SDS011;55596;53.554;9.916;2024-03-07T03:26:30;23.73;;;13.17;;
17796;SDS011;55596;53.554;9.916;2024-03-07T03:28:57;24.77;;;14.73;;
17796;SDS011;55596;53.554;9.916;2024-03-07T03:31:25;20.60;;;12.93;;
17796;SDS011;55596;53.554;9.916;2024-03-07T03:33:52;21.43;;;13.47;;
17796;SDS011;55596;53.554;9.916;2024-03-07T03:36:20;20.97;;;13.57;;
17796;SDS011;55596;53.554;9.916;2024-03-07T03:38:47;22.57;;;13.77;;
17796;SDS011;55596;53.554;9.916;2024-03-07T03:41:15;18.60;;;13.07;;
17796;SDS011;55596;53.554;9.916;2024-03-07T03:43:42;23.67;;;14.63;;
17796;SDS011;55596;53.554;9.916;2024-03-07T03:46:09;24.10;;;13.37;;
17796;SDS011;55596;53.554;9.916;2024-03-07T03:48:39;21.87;;;13.77;;
17796;SDS011;55596;53.554;9.916;2024-03-07T03:51:06;20.70;;;12.93;;
17796;SDS011;55596;53.554;9.916;2024-03-07T03:53:34;20.17;;;12.20;;
17796;SDS011;55596;53.554;9.916;2024-03-07T03:56:01;18.97;;;12.27;;
17796;SDS011;55596;53.554;9.916;2024-03-07T03:58:31;20.90;;;12.23;;
17796;SDS011;55596;53.554;9.916;2024-03-07T04:00:59;17.13;;;12.60;;
17796;SDS011;55596;53.554;9.916;2024-03-07T04:03:26;21.50;;;13.00;;
17796;SDS011;55596;53.554;9.916;2024-03-07T04:05:54;25.23;;;13.60;;
17796;SDS011;55596;53.554;9.916;2024-03-07T04:08:21;22.13;;;12.90;;
17796;SDS011;55596;53.554;9.916;2024-03-07T04:10:48;19.37;;;12.57;;
17796;SDS011;55596;53.554;9.916;2024-03-07T04:13:16;21.70;;;13.23;;
17796;SDS011;55596;53.554;9.916;2024-03-07T04:15:43;22.93;;;12.87;;
17796;SDS011;55596;53.554;9.916;2024-03-07T04:18:10;22.10;;;12.77;;
17796;SDS011;55596;53.554;9.916;2024-03-07T04:20:37;20.80;;;12.63;;
17796;SDS011;55596;53.554;9.916;2024-03-07T04:23:09;22.60;;;13.77;;
17796;SDS011;55596;53.554;9.916;2024-03-07T04:25:36;19.13;;;12.43;;
17796;SDS011;55596;53.554;9.916;2024-03-07T04:28:03;19.77;;;12.67;;
17796;SDS011;55596;53.554;9.916;2024-03-07T04:30:31;25.40;;;13.20;;
17796;SDS011;55596;53.554;9.916;2024-03-07T04:32:58;23.77;;;13.43;;
17796;SDS011;55596;53.554;9.916;2024-03-07T04:35:25;21.50;;;13.27;;
17796;SDS011;55596;53.554;9.916;2024-03-07T04:37:52;22.17;;;12.60;;
17796;SDS011;55596;53.554;9.916;2024-03-07T04:40:21;22.07;;;11.90;;
17796;SDS011;55596;53.554;9.916;2024-03-07T04:42:48;22.80;;;13.43;;
17796;SDS011;55596;53.554;9.916;2024-03-07T04:45:16;20.77;;;12.50;;
17796;SDS011;55596;53.554;9.916;2024-03-07T04:47:43;24.37;;;13.90;;
17796;SDS011;55596;53.554;9.916;2024-03-07T04:50:11;19.53;;;13.17;;
17796;SDS011;55596;53.554;9.916;2024-03-07T04:52:38;21.03;;;12.53;;
17796;SDS011;55596;53.554;9.916;2024-03-07T04:55:05;21.43;;;13.30;;
17796;SDS011;55596;53.554;9.916;2024-03-07T04:57:36;19.17;;;13.17;;
17796;SDS011;55596;53.554;9.916;2024-03-07T05:00:05;19.27;;;13.47;;
17796;SDS011;55596;53.554;9.916;2024-03-07T05:02:32;23.10;;;13.87;;
17796;SDS011;55596;53.554;9.916;2024-03-07T05:04:59;23.30;;;13.33;;
17796;SDS011;55596;53.554;9.916;2024-03-07T05:07:27;18.83;;;13.73;;
17796;SDS011;55596;53.554;9.916;2024-03-07T05:09:54;20.73;;;13.60;;
17796;SDS011;55596;53.554;9.916;2024-03-07T05:12:21;21.03;;;13.80;;
17796;SDS011;55596;53.554;9.916;2024-03-07T05:14:49;19.83;;;13.67;;
17796;SDS011;55596;53.554;9.916;2024-03-07T05:17:16;20.20;;;14.00;;
17796;SDS011;55596;53.554;9.916;2024-03-07T05:19:44;22.20;;;14.57;;
17796;SDS011;55596;53.554;9.916;2024-03-07T05:22:12;18.77;;;13.90;;
17796;SDS011;55596;53.554;9.916;2024-03-07T05:24:41;20.83;;;13.70;;
17796;SDS011;55596;53.554;9.916;2024-03-07T05:27:08;20.67;;;13.40;;
17796;SDS011;55596;53.554;9.916;2024-03-07T05:29:36;19.10;;;13.17;;
17796;SDS011;55596;53.554;9.916;2024-03-07T05:35:02;20.70;;;13.40;;
17796;SDS011;55596;53.554;9.916;2024-03-07T05:37:29;15.70;;;11.77;;
17796;SDS011;55596;53.554;9.916;2024-03-07T05:39:56;17.10;;;12.63;;
17796;SDS011;55596;53.554;9.916;2024-03-07T05:42:24;18.17;;;12.53;;
17796;SDS011;55596;53.554;9.916;2024-03-07T05:44:51;15.90;;;11.97;;
17796;SDS011;55596;53.554;9.916;2024-03-07T05:47:19;18.73;;;12.70;;
17796;SDS011;55596;53.554;9.916;2024-03-07T05:49:46;19.73;;;12.67;;
17796;SDS011;55596;53.554;9.916;2024-03-07T05:52:15;19.13;;;13.00;;
17796;SDS011;55596;53.554;9.916;2024-03-07T05:54:42;19.57;;;12.10;;
17796;SDS011;55596;53.554;9.916;2024-03-07T05:57:10;18.07;;;11.77;;
17796;SDS011;55596;53.554;9.916;2024-03-07T05:59:37;21.10;;;12.77;;
17796;SDS011;55596;53.554;9.916;2024-03-07T06:02:04;16.33;;;11.00;;
17796;SDS011;55596;53.554;9.916;2024-03-07T06:04:31;15.30;;;10.63;;
17796;SDS011;55596;53.554;9.916;2024-03-07T06:06:59;13.17;;;10.43;;
17796;SDS011;55596;53.554;9.916;2024-03-07T06:09:27;22.63;;;11.10;;
17796;SDS011;55596;53.554;9.916;2024-03-07T06:11:54;15.83;;;11.23;;
17796;SDS011;55596;53.554;9.916;2024-03-07T06:14:21;17.27;;;11.37;;
17796;SDS011;55596;53.554;9.916;2024-03-07T06:16:49;17.67;;;11.53;;
17796;SDS011;55596;53.554;9.916;2024-03-07T06:19:17;16.77;;;10.60;;
17796;SDS011;55596;53.554;9.916;2024-03-07T06:21:44;14.73;;;10.17;;
17796;SDS011;55596;53.554;9.916;2024-03-07T06:24:11;17.27;;;10.40;;
17796;SDS011;55596;53.554;9.916;2024-03-07T06:26:41;21.07;;;11.60;;
17796;SDS011;55596;53.554;9.916;2024-03-07T06:29:14;27.00;;;10.80;;
17796;SDS011;55596;53.554;9.916;2024-03-07T06:31:42;14.63;;;10.47;;
17796;SDS011;55596;53.554;9.916;2024-03-07T06:34:11;15.67;;;10.17;;
17796;SDS011;55596;53.554;9.916;2024-03-07T06:36:38;18.13;;;10.90;;
17796;SDS011;55596;53.554;9.916;2024-03-07T06:39:06;15.73;;;11.53;;
17796;SDS011;55596;53.554;9.916;2024-03-07T06:41:35;15.50;;;10.57;;
17796;SDS011;55596;53.554;9.916;2024-03-07T06:44:04;14.43;;;10.37;;
17796;SDS011;55596;53.554;9.916;2024-03-07T06:46:31;19.40;;;11.07;;
17796;SDS011;55596;53.554;9.916;2024-03-07T06:48:59;17.90;;;10.80;;
17796;SDS011;55596;53.554;9.916;2024-03-07T06:51:27;19.70;;;11.13;;
17796;SDS011;55596;53.554;9.916;2024-03-07T06:54:04;15.40;;;10.77;;
17796;SDS011;55596;53.554;9.916;2024-03-07T06:56:32;14.43;;;10.53;;
17796;SDS011;55596;53.554;9.916;2024-03-07T06:59:00;18.43;;;11.40;;
17796;SDS011;55596;53.554;9.916;2024-03-07T07:01:30;16.00;;;9.97;;
17796;SDS011;55596;53.554;9.916;2024-03-07T07:03:58;13.70;;;9.27;;
17796;SDS011;55596;53.554;9.916;2024-03-07T07:06:28;15.97;;;10.43;;
17796;SDS011;55596;53.554;9.916;2024-03-07T07:08:56;16.67;;;9.63;;
17796;SDS011;55596;53.554;9.916;2024-03-07T07:11:27;14.50;;;9.47;;
17796;SDS011;55596;53.554;9.916;2024-03-07T07:13:55;15.57;;;9.67;;
17796;SDS011;55596;53.554;9.916;2024-03-07T07:16:22;13.83;;;9.83;;
17796;SDS011;55596;53.554;9.916;2024-03-07T07:18:51;15.80;;;10.37;;
17796;SDS011;55596;53.554;9.916;2024-03-07T07:21:20;15.37;;;9.70;;
17796;SDS011;55596;53.554;9.916;2024-03-07T07:23:47;16.63;;;9.93;;
17796;SDS011;55596;53.554;9.916;2024-03-07T07:26:14;15.13;;;10.20;;
17796;SDS011;55596;53.554;9.916;2024-03-07T07:28:41;14.77;;;10.13;;
17796;SDS011;55596;53.554;9.916;2024-03-07T07:31:08;17.70;;;10.93;;
17796;SDS011;55596;53.554;9.916;2024-03-07T07:33:36;17.47;;;9.70;;
17796;SDS011;55596;53.554;9.916;2024-03-07T07:36:04;14.87;;;9.67;;
17796;SDS011;55596;53.554;9.916;2024-03-07T07:38:32;19.57;;;9.77;;
17796;SDS011;55596;53.554;9.916;2024-03-07T07:40:59;16.33;;;9.93;;
17796;SDS011;55596;53.554;9.916;2024-03-07T07:43:26;14.77;;;9.63;;
17796;SDS011;55596;53.554;9.916;2024-03-07T07:45:53;15.63;;;9.27;;
17796;SDS011;55596;53.554;9.916;2024-03-07T07:48:21;13.03;;;8.83;;
17796;SDS011;55596;53.554;9.916;2024-03-07T07:50:48;12.50;;;8.60;;
17796;SDS011;55596;53.554;9.916;2024-03-07T07:53:18;11.53;;;8.90;;
17796;SDS011;55596;53.554;9.916;2024-03-07T07:55:45;10.90;;;8.63;;
17796;SDS011;55596;53.554;9.916;2024-03-07T07:58:14;11.83;;;8.23;;
17796;SDS011;55596;53.554;9.916;2024-03-07T08:00:41;14.87;;;9.03;;
17796;SDS011;55596;53.554;9.916;2024-03-07T08:03:09;13.73;;;8.10;;
17796;SDS011;55596;53.554;9.916;2024-03-07T08:05:37;12.53;;;8.47;;
17796;SDS011;55596;53.554;9.916;2024-03-07T08:08:04;13.40;;;8.87;;
17796;SDS011;55596;53.554;9.916;2024-03-07T08:10:33;10.97;;;8.60;;
17796;SDS011;55596;53.554;9.916;2024-03-07T08:13:01;11.73;;;8.50;;
17796;SDS011;55596;53.554;9.916;2024-03-07T08:15:29;14.77;;;8.67;;
17796;SDS011;55596;53.554;9.916;2024-03-07T08:17:56;12.87;;;8.73;;
17796;SDS011;55596;53.554;9.916;2024-03-07T08:20:24;12.23;;;8.90;;
17796;SDS011;55596;53.554;9.916;2024-03-07T08:22:52;13.23;;;8.60;;
17796;SDS011;55596;53.554;9.916;2024-03-07T08:25:20;13.47;;;8.37;;
17796;SDS011;55596;53.554;9.916;2024-03-07T08:27:49;12.97;;;9.40;;
17796;SDS011;55596;53.554;9.916;2024-03-07T08:30:17;14.93;;;9.73;;
17796;SDS011;55596;53.554;9.916;2024-03-07T08:32:45;14.77;;;9.30;;
17796;SDS011;55596;53.554;9.916;2024-03-07T08:35:12;15.33;;;9.67;;
17796;SDS011;55596;53.554;9.916;2024-03-07T08:37:41;13.43;;;9.07;;
17796;SDS011;55596;53.554;9.916;2024-03-07T08:40:09;15.00;;;9.73;;
17796;SDS011;55596;53.554;9.916;2024-03-07T08:42:39;12.67;;;9.50;;
17796;SDS011;55596;53.554;9.916;2024-03-07T08:45:09;14.60;;;9.13;;
17796;SDS011;55596;53.554;9.916;2024-03-07T08:47:36;14.33;;;8.93;;
17796;SDS011;55596;53.554;9.916;2024-03-07T08:50:04;13.23;;;9.50;;
17796;SDS011;55596;53.554;9.916;2024-03-07T08:52:33;14.60;;;9.87;;
17796;SDS011;55596;53.554;9.916;2024-03-07T08:55:02;13.97;;;9.10;;
17796;SDS011;55596;53.554;9.916;2024-03-07T08:57:29;11.97;;;9.33;;
17796;SDS011;55596;53.554;9.916;2024-03-07T08:59:57;10.90;;;8.43;;
17796;SDS011;55596;53.554;9.916;2024-03-07T09:02:27;13.93;;;8.60;;
17796;SDS011;55596;53.554;9.916;2024-03-07T09:04:54;13.03;;;7.70;;
17796;SDS011;55596;53.554;9.916;2024-03-07T09:07:21;14.27;;;8.87;;
17796;SDS011;55596;53.554;9.916;2024-03-07T09:09:49;12.57;;;8.13;;
17796;SDS011;55596;53.554;9.916;2024-03-07T09:12:16;15.07;;;8.23;;
17796;SDS011;55596;53.554;9.916;2024-03-07T09:14:45;11.53;;;8.37;;
17796;SDS011;55596;53.554;9.916;2024-03-07T09:17:12;12.27;;;8.40;;
17796;SDS011;55596;53.554;9.916;2024-03-07T09:19:40;12.10;;;7.90;;
17796;SDS011;55596;53.554;9.916;2024-03-07T09:22:08;11.00;;;7.43;;
17796;SDS011;55596;53.554;9.916;2024-03-07T09:24:35;12.97;;;8.20;;
17796;SDS011;55596;53.554;9.916;2024-03-07T09:27:03;13.10;;;8.63;;
17796;SDS011;55596;53.554;9.916;2024-03-07T09:29:30;12.20;;;8.33;;
17796;SDS011;55596;53.554;9.916;2024-03-07T09:31:58;12.10;;;8.50;;
17796;SDS011;55596;53.554;9.916;2024-03-07T09:34:25;12.80;;;8.93;;
17796;SDS011;55596;53.554;9.916;2024-03-07T09:36:53;11.63;;;8.50;;
17796;SDS011;55596;53.554;9.916;2024-03-07T09:39:21;12.20;;;9.20;;
17796;SDS011;55596;53.554;9.916;2024-03-07T09:41:48;18.63;;;9.33;;
17796;SDS011;55596;53.554;9.916;2024-03-07T09:44:17;23.57;;;10.23;;
17796;SDS011;55596;53.554;9.916;2024-03-07T09:46:48;16.33;;;9.23;;
17796;SDS011;55596;53.554;9.916;2024-03-07T09:49:15;14.47;;;9.97;;
17796;SDS011;55596;53.554;9.916;2024-03-07T09:51:43;18.10;;;10.00;;
17796;SDS011;55596;53.554;9.916;2024-03-07T09:54:11;21.67;;;11.00;;
17796;SDS011;55596;53.554;9.916;2024-03-07T09:56:40;17.47;;;9.57;;
17796;SDS011;55596;53.554;9.916;2024-03-07T09:59:08;16.47;;;9.70;;
17796;SDS011;55596;53.554;9.916;2024-03-07T10:01:38;14.57;;;10.30;;
17796;SDS011;55596;53.554;9.916;2024-03-07T10:04:07;19.03;;;10.67;;
17796;SDS011;55596;53.554;9.916;2024-03-07T10:06:36;19.20;;;9.83;;
17796;SDS011;55596;53.554;9.916;2024-03-07T10:09:04;14.13;;;9.40;;
17796;SDS011;55596;53.554;9.916;2024-03-07T10:11:34;14.83;;;10.27;;
17796;SDS011;55596;53.554;9.916;2024-03-07T10:14:02;16.37;;;10.07;;
17796;SDS011;55596;53.554;9.916;2024-03-07T10:16:29;15.03;;;10.50;;
17796;SDS011;55596;53.554;9.916;2024-03-07T10:18:57;17.57;;;10.90;;
17796;SDS011;55596;53.554;9.916;2024-03-07T10:21:26;18.47;;;10.87;;
17796;SDS011;55596;53.554;9.916;2024-03-07T10:24:03;16.33;;;10.47;;
17796;SDS011;55596;53.554;9.916;2024-03-07T10:26:33;13.60;;;10.40;;
17796;SDS011;55596;53.554;9.916;2024-03-07T10:29:02;15.70;;;10.63;;
17796;SDS011;55596;53.554;9.916;2024-03-07T10:31:29;19.40;;;12.40;;
17796;SDS011;55596;53.554;9.916;2024-03-07T10:33:59;15.57;;;11.20;;
17796;SDS011;55596;53.554;9.916;2024-03-07T10:36:27;17.73;;;11.07;;
17796;SDS011;55596;53.554;9.916;2024-03-07T10:38:56;16.83;;;11.10;;
17796;SDS011;55596;53.554;9.916;2024-03-07T10:41:26;17.03;;;11.50;;
17796;SDS011;55596;53.554;9.916;2024-03-07T10:43:57;17.33;;;12.07;;
17796;SDS011;55596;53.554;9.916;2024-03-07T10:46:24;15.17;;;11.03;;
17796;SDS011;55596;53.554;9.916;2024-03-07T10:48:54;15.63;;;11.87;;
17796;SDS011;55596;53.554;9.916;2024-03-07T10:51:24;20.33;;;11.93;;
17796;SDS011;55596;53.554;9.916;2024-03-07T10:53:57;18.03;;;11.50;;
17796;SDS011;55596;53.554;9.916;2024-03-07T10:56:29;17.33;;;11.23;;
17796;SDS011;55596;53.554;9.916;2024-03-07T10:59:04;17.47;;;11.40;;
17796;SDS011;55596;53.554;9.916;2024-03-07T11:01:35;18.00;;;11.27;;
17796;SDS011;55596;53.554;9.916;2024-03-07T11:04:05;18.53;;;11.67;;
17796;SDS011;55596;53.554;9.916;2024-03-07T11:06:34;15.47;;;10.80;;
17796;SDS011;55596;53.554;9.916;2024-03-07T11:09:02;16.87;;;12.43;;
17796;SDS011;55596;53.554;9.916;2024-03-07T11:11:35;19.00;;;11.47;;
17796;SDS011;55596;53.554;9.916;2024-03-07T11:14:04;19.43;;;11.43;;
17796;SDS011;55596;53.554;9.916;2024-03-07T11:16:31;19.80;;;11.17;;
17796;SDS011;55596;53.554;9.916;2024-03-07T11:19:24;19.73;;;10.93;;
17796;SDS011;55596;53.554;9.916;2024-03-07T11:21:52;15.70;;;10.90;;
17796;SDS011;55596;53.554;9.916;2024-03-07T11:24:24;16.27;;;9.97;;
17796;SDS011;55596;53.554;9.916;2024-03-07T11:26:59;17.50;;;10.73;;
17796;SDS011;55596;53.554;9.916;2024-03-07T11:29:40;16.27;;;10.37;;
17796;SDS011;55596;53.554;9.916;2024-03-07T11:32:12;17.03;;;10.70;;
17796;SDS011;55596;53.554;9.916;2024-03-07T11:34:40;17.97;;;10.73;;
17796;SDS011;55596;53.554;9.916;2024-03-07T11:37:16;17.53;;;10.77;;
17796;SDS011;55596;53.554;9.916;2024-03-07T11:39:47;14.73;;;10.93;;
17796;SDS011;55596;53.554;9.916;2024-03-07T11:42:19;15.27;;;11.03;;
17796;SDS011;55596;53.554;9.916;2024-03-07T11:44:50;17.23;;;10.90;;
17796;SDS011;55596;53.554;9.916;2024-03-07T11:47:17;14.77;;;10.50;;
17796;SDS011;55596;53.554;9.916;2024-03-07T11:49:44;19.67;;;11.27;;
17796;SDS011;55596;53.554;9.916;2024-03-07T11:52:13;16.63;;;11.83;;
17796;SDS011;55596;53.554;9.916;2024-03-07T11:54:41;16.90;;;11.73;;
17796;SDS011;55596;53.554;9.916;2024-03-07T11:57:12;19.27;;;11.80;;
17796;SDS011;55596;53.554;9.916;2024-03-07T11:59:39;14.33;;;11.43;;
17796;SDS011;55596;53.554;9.916;2024-03-07T12:02:10;18.60;;;11.90;;
17796;SDS011;55596;53.554;9.916;2024-03-07T12:04:38;15.90;;;11.93;;
17796;SDS011;55596;53.554;9.916;2024-03-07T12:07:06;16.90;;;11.60;;
17796;SDS011;55596;53.554;9.916;2024-03-07T12:09:35;20.27;;;12.20;;
17796;SDS011;55596;53.554;9.916;2024-03-07T12:12:03;20.80;;;12.83;;
17796;SDS011;55596;53.554;9.916;2024-03-07T12:14:30;15.47;;;11.73;;
17796;SDS011;55596;53.554;9.916;2024-03-07T12:16:58;19.03;;;12.83;;
17796;SDS011;55596;53.554;9.916;2024-03-07T12:19:30;22.30;;;13.27;;
17796;SDS011;55596;53.554;9.916;2024-03-07T12:21:59;18.80;;;12.63;;
17796;SDS011;55596;53.554;9.916;2024-03-07T12:24:25;20.07;;;12.60;;
17796;SDS011;55596;53.554;9.916;2024-03-07T12:26:52;16.73;;;12.67;;
17796;SDS011;55596;53.554;9.916;2024-03-07T12:29:25;18.70;;;12.50;;
17796;SDS011;55596;53.554;9.916;2024-03-07T12:31:52;22.90;;;12.90;;
17796;SDS011;55596;53.554;9.916;2024-03-07T12:34:19;18.90;;;12.83;;
17796;SDS011;55596;53.554;9.916;2024-03-07T12:36:48;19.60;;;12.83;;
17796;SDS011;55596;53.554;9.916;2024-03-07T12:39:22;19.37;;;13.03;;
17796;SDS011;55596;53.554;9.916;2024-03-07T12:41:58;20.40;;;13.07;;
17796;SDS011;55596;53.554;9.916;2024-03-07T12:44:25;18.90;;;12.30;;
17796;SDS011;55596;53.554;9.916;2024-03-07T12:46:53;18.77;;;12.27;;
17796;SDS011;55596;53.554;9.916;2024-03-07T12:49:21;19.73;;;12.30;;
17796;SDS011;55596;53.554;9.916;2024-03-07T12:51:53;18.43;;;12.70;;
17796;SDS011;55596;53.554;9.916;2024-03-07T12:54:20;16.43;;;12.20;;
17796;SDS011;55596;53.554;9.916;2024-03-07T12:56:47;17.57;;;12.83;;
17796;SDS011;55596;53.554;9.916;2024-03-07T12:59:17;18.57;;;13.57;;
17796;SDS011;55596;53.554;9.916;2024-03-07T13:01:49;19.73;;;13.33;;
17796;SDS011;55596;53.554;9.916;2024-03-07T13:04:16;21.43;;;13.33;;
17796;SDS011;55596;53.554;9.916;2024-03-07T13:06:43;19.30;;;13.93;;
17796;SDS011;55596;53.554;9.916;2024-03-07T13:09:13;22.53;;;14.07;;
17796;SDS011;55596;53.554;9.916;2024-03-07T13:11:41;18.97;;;13.90;;
17796;SDS011;55596;53.554;9.916;2024-03-07T13:14:15;18.47;;;13.27;;
17796;SDS011;55596;53.554;9.916;2024-03-07T13:16:42;21.17;;;13.10;;
17796;SDS011;55596;53.554;9.916;2024-03-07T13:19:10;19.53;;;13.07;;
17796;SDS011;55596;53.554;9.916;2024-03-07T13:21:37;21.93;;;14.23;;
17796;SDS011;55596;53.554;9.916;2024-03-07T13:24:04;21.37;;;13.53;;
17796;SDS011;55596;53.554;9.916;2024-03-07T13:26:35;18.63;;;14.23;;
17796;SDS011;55596;53.554;9.916;2024-03-07T13:29:02;20.77;;;13.30;;
17796;SDS011;55596;53.554;9.916;2024-03-07T13:31:29;21.03;;;12.90;;
17796;SDS011;55596;53.554;9.916;2024-03-07T13:33:58;21.97;;;13.77;;
17796;SDS011;55596;53.554;9.916;2024-03-07T13:36:27;22.47;;;14.73;;
17796;SDS011;55596;53.554;9.916;2024-03-07T13:38:54;20.37;;;14.07;;
17796;SDS011;55596;53.554;9.916;2024-03-07T13:41:23;24.97;;;14.40;;
17796;SDS011;55596;53.554;9.916;2024-03-07T13:43:54;17.90;;;13.33;;
17796;SDS011;55596;53.554;9.916;2024-03-07T13:46:22;19.30;;;14.23;;
17796;SDS011;55596;53.554;9.916;2024-03-07T13:48:49;25.73;;;14.33;;
17796;SDS011;55596;53.554;9.916;2024-03-07T13:51:16;21.70;;;13.33;;
17796;SDS011;55596;53.554;9.916;2024-03-07T13:53:45;20.33;;;14.00;;
17796;SDS011;55596;53.554;9.916;2024-03-07T13:56:33;20.53;;;13.90;;
17796;SDS011;55596;53.554;9.916;2024-03-07T13:59:12;18.13;;;13.37;;
17796;SDS011;55596;53.554;9.916;2024-03-07T14:01:47;18.37;;;13.60;;
17796;SDS011;55596;53.554;9.916;2024-03-07T14:04:32;17.23;;;13.07;;
17796;SDS011;55596;53.554;9.916;2024-03-07T14:07:08;20.33;;;13.27;;
17796;SDS011;55596;53.554;9.916;2024-03-07T14:09:43;21.90;;;14.33;;
17796;SDS011;55596;53.554;9.916;2024-03-07T14:12:29;21.20;;;13.67;;
17796;SDS011;55596;53.554;9.916;2024-03-07T14:15:24;21.07;;;12.90;;
17796;SDS011;55596;53.554;9.916;2024-03-07T14:18:14;15.10;;;11.70;;
17796;SDS011;55596;53.554;9.916;2024-03-07T14:20:52;15.40;;;12.27;;
17796;SDS011;55596;53.554;9.916;2024-03-07T14:23:29;22.43;;;13.40;;
17796;SDS011;55596;53.554;9.916;2024-03-07T14:26:02;17.33;;;12.53;;
17796;SDS011;55596;53.554;9.916;2024-03-07T14:28:48;18.00;;;12.83;;
17796;SDS011;55596;53.554;9.916;2024-03-07T14:31:18;16.53;;;13.67;;
17796;SDS011;55596;53.554;9.916;2024-03-07T14:33:48;15.75;;;12.27;;
17796;SDS011;55596;53.554;9.916;2024-03-07T14:36:16;19.50;;;12.43;;